El Centro Naval Air Facility, CA

10:59 AM PDT on October 20, 2014 (GMT -0700)
El Centro Naval Air Facility | Change Station
CLOSE
Current Station
Airport
Location: El Centro,
Elevation: -43 ft
Nearby Weather Stations

Elev -43 ft 32.83 °N, 115.66 °W | Updated 3 minutes ago

Clear
Clear
85 °F
Feels Like 85 °F
N
0
Wind Variable Wind from North

Today
High -- | Low -- °F
--% Chance of Precip.
Yesterday
High -- | Low -- °F
Precip. -- in
6:50 AM 6:03 PM
Waning Crescent, 10% visible
Pressure 29.89 in
Visibility 6.0 miles
Clouds Few 9000 ft
Heat Index 85 °F
Dew Point 61 °F
Humidity 44%
Rainfall 0.00 in
Snow Depth Not available.
UV 5 out of 12
Pollen 6.80 out of 12
Ozone Good
PM2.5 Moderate
Flu Activity Sporadic
METAR KNJK 201756Z 00000KT 6SM HZ FEW090 29/16 A2985 RMK AO2 SLP122 T02940161 10294 20178 51008 $

More Conditions Fewer Conditions

Pressure 29.89 in
Visibility 6.0 miles
Clouds Few 9000 ft
Heat Index 85 °F
Dew Point 61 °F
Humidity 44%
Rainfall 0.00 in
Snow Depth Not available.
UV 5 out of 12
Pollen 6.80 out of 12
Ozone Good
PM2.5 Moderate
Flu Activity Sporadic
METAR KNJK 201756Z 00000KT 6SM HZ FEW090 29/16 A2985 RMK AO2 SLP122 T02940161 10294 20178 51008 $

More Conditions Fewer Conditions

10-Day Weather Forecast

Almanac

Astronomy

Oct. 20, 2014 Rise Set
Actual Time 6:50 AM PDT 6:03 PM PDT
Civil Twilight 6:25 AM PDT 6:28 PM PDT
Nautical Twilight 5:56 AM PDT 6:57 PM PDT
Astronomical Twilight 5:28 AM PDT 7:26 PM PDT
Moon 3:52 AM PDT 4:20 PM PDT
Length of Visible Light 12h 03m
Length of Day
11h 13m
Waning Crescent, 10% of the Moon is Illuminated
Today
Waning Crescent
Oct 23
New
Oct 30
First Quarter
Nov 6
Full
Nov 14
Last Quarter

Today's Extremes

State Highs State Lows

Community

WunderPhotos

Upload Photos

1,763,446 photos uploaded!

WunderBlogs® & News

Nearby

Air Quality

  Air Quality AQ Index Pollutant
Yesterday Moderate
PM2.5
Yesterday Good
OZONE
Current Moderate
PM2.5
Current Good
OZONE

Snow Depth

Station Depth Elevation
Leavitt Lake 0 in 9400 ft
Leavitt Meadows 0 in 7200 ft
Summit Meadow 0 in 9122 ft
Monitor Pass 0 in 8350 ft
Blue Lakes 0 in 8000 ft

Earthquake Activity

City Distance Mag. Time & Date
No recent earthquake activity has been reported nearby.
Minimum magnitude displayed is 2.5.

Coastal Water Temperatures

Place Temperature
No Stations Reporting

Nearby Weather Stations